sensor_id;sensor_type;location;lat;lon;timestamp;P1;durP1;ratioP1;P2;durP2;ratioP2
77109;SDS011;66062;52.464;16.922;2023-04-25T00:02:11;1.48;;;0.88;;
77109;SDS011;66062;52.464;16.922;2023-04-25T00:04:36;3.22;;;0.90;;
77109;SDS011;66062;52.464;16.922;2023-04-25T00:07:03;1.65;;;0.80;;
77109;SDS011;66062;52.464;16.922;2023-04-25T00:09:28;1.95;;;0.80;;
77109;SDS011;66062;52.464;16.922;2023-04-25T00:11:54;1.67;;;0.80;;
77109;SDS011;66062;52.464;16.922;2023-04-25T00:14:20;3.33;;;1.08;;
77109;SDS011;66062;52.464;16.922;2023-04-25T00:16:45;3.03;;;0.93;;
77109;SDS011;66062;52.464;16.922;2023-04-25T00:19:10;2.33;;;0.90;;
77109;SDS011;66062;52.464;16.922;2023-04-25T00:21:36;6.60;;;0.90;;
77109;SDS011;66062;52.464;16.922;2023-04-25T00:24:05;1.38;;;0.75;;
77109;SDS011;66062;52.464;16.922;2023-04-25T00:26:34;2.05;;;1.00;;
77109;SDS011;66062;52.464;16.922;2023-04-25T00:31:29;1.38;;;0.70;;
77109;SDS011;66062;52.464;16.922;2023-04-25T00:33:55;1.38;;;0.70;;
77109;SDS011;66062;52.464;16.922;2023-04-25T00:36:20;2.40;;;1.00;;
77109;SDS011;66062;52.464;16.922;2023-04-25T00:38:46;3.67;;;0.93;;
77109;SDS011;66062;52.464;16.922;2023-04-25T00:41:12;1.48;;;0.85;;
77109;SDS011;66062;52.464;16.922;2023-04-25T00:43:38;2.80;;;0.85;;
77109;SDS011;66062;52.464;16.922;2023-04-25T00:46:05;2.75;;;1.17;;
77109;SDS011;66062;52.464;16.922;2023-04-25T00:48:30;2.00;;;0.70;;
77109;SDS011;66062;52.464;16.922;2023-04-25T00:50:59;2.33;;;0.90;;
77109;SDS011;66062;52.464;16.922;2023-04-25T00:53:25;1.40;;;0.65;;
77109;SDS011;66062;52.464;16.922;2023-04-25T00:55:52;1.50;;;0.82;;
77109;SDS011;66062;52.464;16.922;2023-04-25T00:58:18;3.45;;;0.88;;
77109;SDS011;66062;52.464;16.922;2023-04-25T01:00:45;3.45;;;1.00;;
77109;SDS011;66062;52.464;16.922;2023-04-25T01:03:12;4.20;;;0.98;;
77109;SDS011;66062;52.464;16.922;2023-04-25T01:05:39;2.05;;;0.82;;
77109;SDS011;66062;52.464;16.922;2023-04-25T01:08:06;2.13;;;1.10;;
77109;SDS011;66062;52.464;16.922;2023-04-25T01:10:32;2.38;;;1.10;;
77109;SDS011;66062;52.464;16.922;2023-04-25T01:12:57;2.67;;;1.30;;
77109;SDS011;66062;52.464;16.922;2023-04-25T01:15:23;2.03;;;1.25;;
77109;SDS011;66062;52.464;16.922;2023-04-25T01:17:48;2.35;;;1.15;;
77109;SDS011;66062;52.464;16.922;2023-04-25T01:20:14;2.97;;;1.10;;
77109;SDS011;66062;52.464;16.922;2023-04-25T01:22:42;2.28;;;1.02;;
77109;SDS011;66062;52.464;16.922;2023-04-25T01:25:08;1.60;;;0.77;;
77109;SDS011;66062;52.464;16.922;2023-04-25T01:27:35;2.05;;;0.93;;
77109;SDS011;66062;52.464;16.922;2023-04-25T01:30:01;3.20;;;1.10;;
77109;SDS011;66062;52.464;16.922;2023-04-25T01:32:28;1.63;;;0.90;;
77109;SDS011;66062;52.464;16.922;2023-04-25T01:35:03;3.70;;;1.25;;
77109;SDS011;66062;52.464;16.922;2023-04-25T01:37:36;2.75;;;1.25;;
77109;SDS011;66062;52.464;16.922;2023-04-25T01:40:03;4.30;;;1.33;;
77109;SDS011;66062;52.464;16.922;2023-04-25T01:42:30;1.88;;;1.02;;
77109;SDS011;66062;52.464;16.922;2023-04-25T01:44:57;3.03;;;1.02;;
77109;SDS011;66062;52.464;16.922;2023-04-25T01:47:23;3.95;;;1.33;;
77109;SDS011;66062;52.464;16.922;2023-04-25T01:49:48;2.80;;;0.90;;
77109;SDS011;66062;52.464;16.922;2023-04-25T01:52:14;2.33;;;1.33;;
77109;SDS011;66062;52.464;16.922;2023-04-25T01:54:40;2.17;;;1.42;;
77109;SDS011;66062;52.464;16.922;2023-04-25T01:57:09;1.85;;;1.20;;
77109;SDS011;66062;52.464;16.922;2023-04-25T01:59:35;4.65;;;1.83;;
77109;SDS011;66062;52.464;16.922;2023-04-25T02:02:01;2.40;;;1.10;;
77109;SDS011;66062;52.464;16.922;2023-04-25T02:04:28;2.58;;;1.33;;
77109;SDS011;66062;52.464;16.922;2023-04-25T02:06:54;2.22;;;1.48;;
77109;SDS011;66062;52.464;16.922;2023-04-25T02:09:20;3.58;;;1.25;;
77109;SDS011;66062;52.464;16.922;2023-04-25T02:11:45;2.30;;;1.17;;
77109;SDS011;66062;52.464;16.922;2023-04-25T02:14:11;2.45;;;1.20;;
77109;SDS011;66062;52.464;16.922;2023-04-25T02:16:36;2.08;;;1.17;;
77109;SDS011;66062;52.464;16.922;2023-04-25T02:19:02;2.20;;;1.20;;
77109;SDS011;66062;52.464;16.922;2023-04-25T02:21:27;4.20;;;1.55;;
77109;SDS011;66062;52.464;16.922;2023-04-25T02:23:53;2.38;;;1.30;;
77109;SDS011;66062;52.464;16.922;2023-04-25T02:26:19;3.92;;;1.50;;
77109;SDS011;66062;52.464;16.922;2023-04-25T02:28:44;3.05;;;1.50;;
77109;SDS011;66062;52.464;16.922;2023-04-25T02:31:10;3.17;;;1.48;;
77109;SDS011;66062;52.464;16.922;2023-04-25T02:33:35;3.35;;;1.30;;
77109;SDS011;66062;52.464;16.922;2023-04-25T02:36:01;3.53;;;1.67;;
77109;SDS011;66062;52.464;16.922;2023-04-25T02:38:26;3.53;;;1.60;;
77109;SDS011;66062;52.464;16.922;2023-04-25T02:40:51;2.80;;;1.52;;
77109;SDS011;66062;52.464;16.922;2023-04-25T02:43:17;4.47;;;1.80;;
77109;SDS011;66062;52.464;16.922;2023-04-25T02:45:42;3.38;;;1.40;;
77109;SDS011;66062;52.464;16.922;2023-04-25T02:48:08;3.55;;;2.00;;
77109;SDS011;66062;52.464;16.922;2023-04-25T02:50:33;3.78;;;1.60;;
77109;SDS011;66062;52.464;16.922;2023-04-25T02:52:59;4.35;;;1.88;;
77109;SDS011;66062;52.464;16.922;2023-04-25T02:55:24;4.50;;;1.85;;
77109;SDS011;66062;52.464;16.922;2023-04-25T02:57:49;4.60;;;2.05;;
77109;SDS011;66062;52.464;16.922;2023-04-25T03:00:15;3.88;;;2.20;;
77109;SDS011;66062;52.464;16.922;2023-04-25T03:02:41;4.80;;;1.83;;
77109;SDS011;66062;52.464;16.922;2023-04-25T03:05:06;5.88;;;2.60;;
77109;SDS011;66062;52.464;16.922;2023-04-25T03:07:32;4.25;;;2.40;;
77109;SDS011;66062;52.464;16.922;2023-04-25T03:09:57;7.40;;;2.50;;
77109;SDS011;66062;52.464;16.922;2023-04-25T03:12:23;10.45;;;4.88;;
77109;SDS011;66062;52.464;16.922;2023-04-25T03:14:48;5.15;;;2.63;;
77109;SDS011;66062;52.464;16.922;2023-04-25T03:17:14;5.38;;;2.22;;
77109;SDS011;66062;52.464;16.922;2023-04-25T03:19:39;4.32;;;2.67;;
77109;SDS011;66062;52.464;16.922;2023-04-25T03:22:04;3.75;;;2.30;;
77109;SDS011;66062;52.464;16.922;2023-04-25T03:24:30;6.38;;;2.50;;
77109;SDS011;66062;52.464;16.922;2023-04-25T03:26:55;4.30;;;2.65;;
77109;SDS011;66062;52.464;16.922;2023-04-25T03:29:20;4.32;;;2.70;;
77109;SDS011;66062;52.464;16.922;2023-04-25T03:31:49;4.20;;;2.80;;
77109;SDS011;66062;52.464;16.922;2023-04-25T03:34:15;6.00;;;2.92;;
77109;SDS011;66062;52.464;16.922;2023-04-25T03:36:40;6.65;;;1.88;;
77109;SDS011;66062;52.464;16.922;2023-04-25T03:39:06;7.25;;;2.60;;
77109;SDS011;66062;52.464;16.922;2023-04-25T03:41:31;5.90;;;3.53;;
77109;SDS011;66062;52.464;16.922;2023-04-25T03:43:57;4.60;;;2.80;;
77109;SDS011;66062;52.464;16.922;2023-04-25T03:46:22;8.13;;;2.67;;
77109;SDS011;66062;52.464;16.922;2023-04-25T03:48:47;5.35;;;2.63;;
77109;SDS011;66062;52.464;16.922;2023-04-25T03:51:13;5.75;;;3.42;;
77109;SDS011;66062;52.464;16.922;2023-04-25T03:53:38;4.70;;;2.88;;
77109;SDS011;66062;52.464;16.922;2023-04-25T03:56:04;5.78;;;3.13;;
77109;SDS011;66062;52.464;16.922;2023-04-25T03:58:29;7.50;;;2.90;;
77109;SDS011;66062;52.464;16.922;2023-04-25T04:00:55;6.97;;;2.80;;
77109;SDS011;66062;52.464;16.922;2023-04-25T04:03:20;6.13;;;3.10;;
77109;SDS011;66062;52.464;16.922;2023-04-25T04:05:46;6.13;;;3.00;;
77109;SDS011;66062;52.464;16.922;2023-04-25T04:08:12;4.15;;;2.78;;
77109;SDS011;66062;52.464;16.922;2023-04-25T04:10:37;10.35;;;3.42;;
77109;SDS011;66062;52.464;16.922;2023-04-25T04:13:03;8.77;;;3.42;;
77109;SDS011;66062;52.464;16.922;2023-04-25T04:15:28;5.38;;;3.08;;
77109;SDS011;66062;52.464;16.922;2023-04-25T04:17:54;4.75;;;2.78;;
77109;SDS011;66062;52.464;16.922;2023-04-25T04:20:19;6.68;;;2.90;;
77109;SDS011;66062;52.464;16.922;2023-04-25T04:22:45;4.78;;;3.38;;
77109;SDS011;66062;52.464;16.922;2023-04-25T04:25:11;5.50;;;3.13;;
77109;SDS011;66062;52.464;16.922;2023-04-25T04:27:37;7.03;;;3.33;;
77109;SDS011;66062;52.464;16.922;2023-04-25T04:30:03;6.68;;;3.20;;
77109;SDS011;66062;52.464;16.922;2023-04-25T04:32:29;7.75;;;4.10;;
77109;SDS011;66062;52.464;16.922;2023-04-25T04:34:55;6.45;;;3.60;;
77109;SDS011;66062;52.464;16.922;2023-04-25T04:37:21;7.25;;;3.72;;
77109;SDS011;66062;52.464;16.922;2023-04-25T04:39:47;6.15;;;3.22;;
77109;SDS011;66062;52.464;16.922;2023-04-25T04:42:13;4.63;;;2.90;;
77109;SDS011;66062;52.464;16.922;2023-04-25T04:44:38;7.72;;;4.03;;
77109;SDS011;66062;52.464;16.922;2023-04-25T04:47:04;10.43;;;3.80;;
77109;SDS011;66062;52.464;16.922;2023-04-25T04:49:31;4.60;;;2.95;;
77109;SDS011;66062;52.464;16.922;2023-04-25T04:51:57;5.70;;;3.05;;
77109;SDS011;66062;52.464;16.922;2023-04-25T04:54:22;6.60;;;3.15;;
77109;SDS011;66062;52.464;16.922;2023-04-25T04:56:48;4.65;;;2.72;;
77109;SDS011;66062;52.464;16.922;2023-04-25T04:59:13;10.27;;;2.83;;
77109;SDS011;66062;52.464;16.922;2023-04-25T05:01:38;6.35;;;3.08;;
77109;SDS011;66062;52.464;16.922;2023-04-25T05:04:04;7.82;;;2.97;;
77109;SDS011;66062;52.464;16.922;2023-04-25T05:06:30;6.55;;;3.45;;
77109;SDS011;66062;52.464;16.922;2023-04-25T05:08:56;7.30;;;3.40;;
77109;SDS011;66062;52.464;16.922;2023-04-25T05:11:22;5.75;;;3.05;;
77109;SDS011;66062;52.464;16.922;2023-04-25T05:13:51;5.78;;;3.40;;
77109;SDS011;66062;52.464;16.922;2023-04-25T05:16:17;6.57;;;3.67;;
77109;SDS011;66062;52.464;16.922;2023-04-25T05:18:43;8.20;;;3.60;;
77109;SDS011;66062;52.464;16.922;2023-04-25T05:21:08;6.18;;;2.95;;
77109;SDS011;66062;52.464;16.922;2023-04-25T05:23:34;6.97;;;3.20;;
77109;SDS011;66062;52.464;16.922;2023-04-25T05:25:59;5.32;;;3.20;;
77109;SDS011;66062;52.464;16.922;2023-04-25T05:28:25;5.35;;;2.50;;
77109;SDS011;66062;52.464;16.922;2023-04-25T05:30:50;5.50;;;3.20;;
77109;SDS011;66062;52.464;16.922;2023-04-25T05:33:16;7.95;;;3.17;;
77109;SDS011;66062;52.464;16.922;2023-04-25T05:35:42;5.32;;;2.78;;
77109;SDS011;66062;52.464;16.922;2023-04-25T05:38:07;7.20;;;2.90;;
77109;SDS011;66062;52.464;16.922;2023-04-25T05:40:33;7.22;;;3.08;;
77109;SDS011;66062;52.464;16.922;2023-04-25T05:42:58;7.78;;;2.97;;
77109;SDS011;66062;52.464;16.922;2023-04-25T05:45:23;6.85;;;2.97;;
77109;SDS011;66062;52.464;16.922;2023-04-25T05:47:49;4.97;;;2.60;;
77109;SDS011;66062;52.464;16.922;2023-04-25T05:50:14;8.40;;;2.85;;
77109;SDS011;66062;52.464;16.922;2023-04-25T05:52:40;6.18;;;2.97;;
77109;SDS011;66062;52.464;16.922;2023-04-25T05:55:05;11.20;;;3.58;;
77109;SDS011;66062;52.464;16.922;2023-04-25T05:57:31;7.15;;;3.17;;
77109;SDS011;66062;52.464;16.922;2023-04-25T05:59:57;8.88;;;3.15;;
77109;SDS011;66062;52.464;16.922;2023-04-25T06:02:22;5.28;;;2.60;;
77109;SDS011;66062;52.464;16.922;2023-04-25T06:04:49;6.28;;;2.58;;
77109;SDS011;66062;52.464;16.922;2023-04-25T06:09:40;4.47;;;1.80;;
77109;SDS011;66062;52.464;16.922;2023-04-25T06:12:06;3.78;;;2.17;;
77109;SDS011;66062;52.464;16.922;2023-04-25T06:14:32;6.13;;;2.63;;
77109;SDS011;66062;52.464;16.922;2023-04-25T06:16:58;11.13;;;2.60;;
77109;SDS011;66062;52.464;16.922;2023-04-25T06:19:23;3.95;;;2.20;;
77109;SDS011;66062;52.464;16.922;2023-04-25T06:21:49;6.88;;;2.55;;
77109;SDS011;66062;52.464;16.922;2023-04-25T06:24:14;6.90;;;2.70;;
77109;SDS011;66062;52.464;16.922;2023-04-25T06:26:40;7.57;;;2.92;;
77109;SDS011;66062;52.464;16.922;2023-04-25T06:29:05;7.47;;;2.67;;
77109;SDS011;66062;52.464;16.922;2023-04-25T06:31:31;8.10;;;2.72;;
77109;SDS011;66062;52.464;16.922;2023-04-25T06:33:59;8.60;;;2.67;;
77109;SDS011;66062;52.464;16.922;2023-04-25T06:36:25;4.95;;;2.65;;
77109;SDS011;66062;52.464;16.922;2023-04-25T06:38:52;6.35;;;2.45;;
77109;SDS011;66062;52.464;16.922;2023-04-25T06:41:19;6.63;;;2.35;;
77109;SDS011;66062;52.464;16.922;2023-04-25T06:43:45;5.03;;;2.22;;
77109;SDS011;66062;52.464;16.922;2023-04-25T06:46:11;5.82;;;2.47;;
77109;SDS011;66062;52.464;16.922;2023-04-25T06:48:36;5.60;;;2.53;;
77109;SDS011;66062;52.464;16.922;2023-04-25T06:51:01;8.50;;;2.80;;
77109;SDS011;66062;52.464;16.922;2023-04-25T06:53:28;5.82;;;2.50;;
77109;SDS011;66062;52.464;16.922;2023-04-25T06:55:54;8.48;;;2.80;;
77109;SDS011;66062;52.464;16.922;2023-04-25T06:58:19;6.13;;;2.15;;
77109;SDS011;66062;52.464;16.922;2023-04-25T07:00:44;6.40;;;2.50;;
77109;SDS011;66062;52.464;16.922;2023-04-25T07:03:10;5.95;;;2.63;;
77109;SDS011;66062;52.464;16.922;2023-04-25T07:05:35;7.28;;;2.70;;
77109;SDS011;66062;52.464;16.922;2023-04-25T07:08:01;6.32;;;2.55;;
77109;SDS011;66062;52.464;16.922;2023-04-25T07:10:27;3.55;;;2.20;;
77109;SDS011;66062;52.464;16.922;2023-04-25T07:12:52;5.00;;;2.40;;
77109;SDS011;66062;52.464;16.922;2023-04-25T07:15:18;10.90;;;2.97;;
77109;SDS011;66062;52.464;16.922;2023-04-25T07:17:44;7.65;;;2.90;;
77109;SDS011;66062;52.464;16.922;2023-04-25T07:20:10;6.90;;;2.42;;
77109;SDS011;66062;52.464;16.922;2023-04-25T07:22:36;6.97;;;2.95;;
77109;SDS011;66062;52.464;16.922;2023-04-25T07:25:01;7.97;;;3.25;;
77109;SDS011;66062;52.464;16.922;2023-04-25T07:27:27;6.88;;;2.17;;
77109;SDS011;66062;52.464;16.922;2023-04-25T07:29:53;8.65;;;2.60;;
77109;SDS011;66062;52.464;16.922;2023-04-25T07:32:18;6.00;;;2.65;;
77109;SDS011;66062;52.464;16.922;2023-04-25T07:34:44;7.13;;;3.50;;
77109;SDS011;66062;52.464;16.922;2023-04-25T07:37:10;5.38;;;2.65;;
77109;SDS011;66062;52.464;16.922;2023-04-25T07:39:36;6.15;;;2.28;;
77109;SDS011;66062;52.464;16.922;2023-04-25T07:42:02;7.15;;;2.35;;
77109;SDS011;66062;52.464;16.922;2023-04-25T07:44:29;5.93;;;2.75;;
77109;SDS011;66062;52.464;16.922;2023-04-25T07:47:03;4.45;;;2.65;;
77109;SDS011;66062;52.464;16.922;2023-04-25T07:49:29;7.75;;;2.83;;
77109;SDS011;66062;52.464;16.922;2023-04-25T07:51:54;4.07;;;2.13;;
77109;SDS011;66062;52.464;16.922;2023-04-25T07:54:20;7.93;;;2.97;;
77109;SDS011;66062;52.464;16.922;2023-04-25T07:56:45;7.65;;;2.83;;
77109;SDS011;66062;52.464;16.922;2023-04-25T07:59:10;4.50;;;2.80;;
77109;SDS011;66062;52.464;16.922;2023-04-25T08:01:36;6.72;;;2.80;;
77109;SDS011;66062;52.464;16.922;2023-04-25T08:04:02;7.32;;;2.75;;
77109;SDS011;66062;52.464;16.922;2023-04-25T08:06:27;6.78;;;2.67;;
77109;SDS011;66062;52.464;16.922;2023-04-25T08:08:52;4.25;;;2.28;;
77109;SDS011;66062;52.464;16.922;2023-04-25T08:11:19;7.00;;;3.17;;
77109;SDS011;66062;52.464;16.922;2023-04-25T08:13:44;10.65;;;3.08;;
77109;SDS011;66062;52.464;16.922;2023-04-25T08:16:10;5.30;;;2.78;;
77109;SDS011;66062;52.464;16.922;2023-04-25T08:18:35;7.45;;;2.83;;
77109;SDS011;66062;52.464;16.922;2023-04-25T08:21:01;6.65;;;3.13;;
77109;SDS011;66062;52.464;16.922;2023-04-25T08:23:26;6.15;;;2.70;;
77109;SDS011;66062;52.464;16.922;2023-04-25T08:25:51;5.10;;;2.22;;
77109;SDS011;66062;52.464;16.922;2023-04-25T08:28:17;5.50;;;2.53;;
77109;SDS011;66062;52.464;16.922;2023-04-25T08:30:42;5.45;;;2.60;;
77109;SDS011;66062;52.464;16.922;2023-04-25T08:33:08;4.00;;;2.30;;
77109;SDS011;66062;52.464;16.922;2023-04-25T08:35:33;6.93;;;2.22;;
77109;SDS011;66062;52.464;16.922;2023-04-25T08:37:59;7.93;;;2.22;;
77109;SDS011;66062;52.464;16.922;2023-04-25T08:40:26;6.70;;;2.58;;
77109;SDS011;66062;52.464;16.922;2023-04-25T08:42:55;7.25;;;2.50;;
77109;SDS011;66062;52.464;16.922;2023-04-25T08:45:22;7.18;;;2.47;;
77109;SDS011;66062;52.464;16.922;2023-04-25T08:47:48;7.72;;;2.80;;
77109;SDS011;66062;52.464;16.922;2023-04-25T08:50:16;5.55;;;2.88;;
77109;SDS011;66062;52.464;16.922;2023-04-25T08:52:45;5.40;;;2.65;;
77109;SDS011;66062;52.464;16.922;2023-04-25T08:55:13;6.05;;;2.67;;
77109;SDS011;66062;52.464;16.922;2023-04-25T08:57:43;5.15;;;2.20;;
77109;SDS011;66062;52.464;16.922;2023-04-25T09:00:10;6.25;;;2.97;;
77109;SDS011;66062;52.464;16.922;2023-04-25T09:02:37;9.95;;;2.70;;
77109;SDS011;66062;52.464;16.922;2023-04-25T09:07:31;4.93;;;2.72;;
77109;SDS011;66062;52.464;16.922;2023-04-25T09:09:57;6.75;;;2.92;;
77109;SDS011;66062;52.464;16.922;2023-04-25T09:12:24;6.88;;;2.67;;
77109;SDS011;66062;52.464;16.922;2023-04-25T09:15:02;7.03;;;2.65;;
77109;SDS011;66062;52.464;16.922;2023-04-25T09:17:32;5.40;;;2.55;;
77109;SDS011;66062;52.464;16.922;2023-04-25T09:20:11;8.13;;;2.70;;
77109;SDS011;66062;52.464;16.922;2023-04-25T09:22:38;3.38;;;2.53;;
77109;SDS011;66062;52.464;16.922;2023-04-25T09:25:11;4.88;;;2.83;;
77109;SDS011;66062;52.464;16.922;2023-04-25T09:30:15;6.70;;;2.58;;
77109;SDS011;66062;52.464;16.922;2023-04-25T09:32:42;4.20;;;2.60;;
77109;SDS011;66062;52.464;16.922;2023-04-25T09:35:08;4.20;;;2.17;;
77109;SDS011;66062;52.464;16.922;2023-04-25T09:37:34;5.55;;;2.10;;
77109;SDS011;66062;52.464;16.922;2023-04-25T09:40:00;4.18;;;1.73;;
77109;SDS011;66062;52.464;16.922;2023-04-25T09:42:30;5.07;;;2.00;;
77109;SDS011;66062;52.464;16.922;2023-04-25T09:44:57;5.18;;;2.67;;
77109;SDS011;66062;52.464;16.922;2023-04-25T09:47:24;5.70;;;2.90;;
77109;SDS011;66062;52.464;16.922;2023-04-25T09:49:54;8.48;;;2.85;;
77109;SDS011;66062;52.464;16.922;2023-04-25T09:52:24;7.65;;;2.85;;
77109;SDS011;66062;52.464;16.922;2023-04-25T09:54:49;7.57;;;2.80;;
77109;SDS011;66062;52.464;16.922;2023-04-25T09:57:17;7.00;;;2.90;;
77109;SDS011;66062;52.464;16.922;2023-04-25T09:59:44;4.53;;;2.65;;
77109;SDS011;66062;52.464;16.922;2023-04-25T10:02:10;5.25;;;3.10;;
77109;SDS011;66062;52.464;16.922;2023-04-25T10:04:37;4.75;;;2.90;;
77109;SDS011;66062;52.464;16.922;2023-04-25T10:07:05;7.55;;;2.85;;
77109;SDS011;66062;52.464;16.922;2023-04-25T10:09:31;4.63;;;2.80;;
77109;SDS011;66062;52.464;16.922;2023-04-25T10:12:01;6.15;;;2.80;;
77109;SDS011;66062;52.464;16.922;2023-04-25T10:14:29;3.45;;;2.40;;
77109;SDS011;66062;52.464;16.922;2023-04-25T10:16:56;6.35;;;1.92;;
77109;SDS011;66062;52.464;16.922;2023-04-25T10:19:23;5.10;;;2.17;;
77109;SDS011;66062;52.464;16.922;2023-04-25T10:21:51;7.78;;;3.28;;
77109;SDS011;66062;52.464;16.922;2023-04-25T10:24:49;4.88;;;2.45;;
77109;SDS011;66062;52.464;16.922;2023-04-25T10:27:15;4.43;;;2.08;;
77109;SDS011;66062;52.464;16.922;2023-04-25T10:29:41;4.40;;;2.47;;
77109;SDS011;66062;52.464;16.922;2023-04-25T10:32:08;6.68;;;2.38;;
77109;SDS011;66062;52.464;16.922;2023-04-25T10:34:37;6.60;;;2.22;;
77109;SDS011;66062;52.464;16.922;2023-04-25T10:37:10;6.55;;;2.42;;
77109;SDS011;66062;52.464;16.922;2023-04-25T10:39:38;4.22;;;2.22;;
77109;SDS011;66062;52.464;16.922;2023-04-25T10:42:05;5.10;;;2.63;;
77109;SDS011;66062;52.464;16.922;2023-04-25T10:44:32;5.57;;;2.42;;
77109;SDS011;66062;52.464;16.922;2023-04-25T10:47:01;5.75;;;1.98;;
77109;SDS011;66062;52.464;16.922;2023-04-25T10:49:32;6.93;;;3.15;;
77109;SDS011;66062;52.464;16.922;2023-04-25T10:52:11;7.18;;;2.10;;
77109;SDS011;66062;52.464;16.922;2023-04-25T10:54:45;4.95;;;2.20;;
77109;SDS011;66062;52.464;16.922;2023-04-25T10:57:27;6.40;;;2.35;;
77109;SDS011;66062;52.464;16.922;2023-04-25T11:00:00;5.35;;;2.03;;
77109;SDS011;66062;52.464;16.922;2023-04-25T11:02:40;3.55;;;1.85;;
77109;SDS011;66062;52.464;16.922;2023-04-25T11:05:08;4.07;;;2.08;;
77109;SDS011;66062;52.464;16.922;2023-04-25T11:07:39;7.47;;;1.98;;
77109;SDS011;66062;52.464;16.922;2023-04-25T11:10:17;4.55;;;2.03;;
77109;SDS011;66062;52.464;16.922;2023-04-25T11:12:42;4.35;;;2.03;;
77109;SDS011;66062;52.464;16.922;2023-04-25T11:15:09;3.10;;;1.52;;
77109;SDS011;66062;52.464;16.922;2023-04-25T11:17:35;4.78;;;1.98;;
77109;SDS011;66062;52.464;16.922;2023-04-25T11:20:01;4.25;;;1.65;;
77109;SDS011;66062;52.464;16.922;2023-04-25T11:22:31;4.05;;;1.65;;
77109;SDS011;66062;52.464;16.922;2023-04-25T11:24:56;8.93;;;1.58;;
77109;SDS011;66062;52.464;16.922;2023-04-25T11:27:22;4.15;;;1.67;;
77109;SDS011;66062;52.464;16.922;2023-04-25T11:29:49;4.35;;;1.60;;
77109;SDS011;66062;52.464;16.922;2023-04-25T11:32:15;5.80;;;1.67;;
77109;SDS011;66062;52.464;16.922;2023-04-25T11:34:42;4.72;;;1.73;;
77109;SDS011;66062;52.464;16.922;2023-04-25T11:39:37;5.78;;;1.73;;
77109;SDS011;66062;52.464;16.922;2023-04-25T11:42:03;5.68;;;2.33;;
77109;SDS011;66062;52.464;16.922;2023-04-25T11:44:30;7.22;;;1.75;;
77109;SDS011;66062;52.464;16.922;2023-04-25T11:46:56;4.15;;;1.60;;
77109;SDS011;66062;52.464;16.922;2023-04-25T11:49:23;5.60;;;2.10;;
77109;SDS011;66062;52.464;16.922;2023-04-25T11:51:49;3.47;;;1.60;;
77109;SDS011;66062;52.464;16.922;2023-04-25T11:54:15;4.22;;;2.13;;
77109;SDS011;66062;52.464;16.922;2023-04-25T11:56:42;4.40;;;1.65;;
77109;SDS011;66062;52.464;16.922;2023-04-25T11:59:08;4.10;;;1.50;;
77109;SDS011;66062;52.464;16.922;2023-04-25T12:01:34;4.82;;;1.80;;
77109;SDS011;66062;52.464;16.922;2023-04-25T12:04:15;7.13;;;1.95;;
77109;SDS011;66062;52.464;16.922;2023-04-25T12:06:42;3.22;;;1.80;;
77109;SDS011;66062;52.464;16.922;2023-04-25T12:09:11;4.03;;;1.80;;
77109;SDS011;66062;52.464;16.922;2023-04-25T12:11:44;5.45;;;2.58;;
77109;SDS011;66062;52.464;16.922;2023-04-25T12:14:11;5.50;;;2.42;;
77109;SDS011;66062;52.464;16.922;2023-04-25T12:16:40;5.63;;;2.45;;
77109;SDS011;66062;52.464;16.922;2023-04-25T12:19:13;4.63;;;2.17;;
77109;SDS011;66062;52.464;16.922;2023-04-25T12:21:39;4.25;;;1.75;;
77109;SDS011;66062;52.464;16.922;2023-04-25T12:24:11;4.90;;;2.15;;
77109;SDS011;66062;52.464;16.922;2023-04-25T12:29:25;5.40;;;1.50;;
77109;SDS011;66062;52.464;16.922;2023-04-25T12:31:52;5.07;;;1.60;;
77109;SDS011;66062;52.464;16.922;2023-04-25T12:34:18;5.13;;;2.00;;
77109;SDS011;66062;52.464;16.922;2023-04-25T12:36:45;3.50;;;1.95;;
77109;SDS011;66062;52.464;16.922;2023-04-25T12:39:23;5.10;;;1.85;;
77109;SDS011;66062;52.464;16.922;2023-04-25T12:41:52;6.13;;;1.90;;
77109;SDS011;66062;52.464;16.922;2023-04-25T12:44:21;2.85;;;2.05;;
77109;SDS011;66062;52.464;16.922;2023-04-25T12:46:47;4.50;;;2.25;;
77109;SDS011;66062;52.464;16.922;2023-04-25T12:49:13;7.32;;;2.00;;
77109;SDS011;66062;52.464;16.922;2023-04-25T12:51:39;4.32;;;1.52;;
77109;SDS011;66062;52.464;16.922;2023-04-25T12:54:05;5.97;;;2.00;;
77109;SDS011;66062;52.464;16.922;2023-04-25T12:56:32;3.67;;;1.38;;
77109;SDS011;66062;52.464;16.922;2023-04-25T12:58:58;7.00;;;2.83;;
77109;SDS011;66062;52.464;16.922;2023-04-25T13:01:24;4.05;;;1.75;;
77109;SDS011;66062;52.464;16.922;2023-04-25T13:03:50;3.13;;;1.10;;
77109;SDS011;66062;52.464;16.922;2023-04-25T13:06:16;3.45;;;1.45;;
77109;SDS011;66062;52.464;16.922;2023-04-25T13:08:42;5.68;;;1.60;;
77109;SDS011;66062;52.464;16.922;2023-04-25T13:11:08;9.27;;;2.25;;
77109;SDS011;66062;52.464;16.922;2023-04-25T13:13:36;9.85;;;2.40;;
77109;SDS011;66062;52.464;16.922;2023-04-25T13:16:01;7.88;;;1.23;;
77109;SDS011;66062;52.464;16.922;2023-04-25T13:18:30;4.63;;;0.93;;
77109;SDS011;66062;52.464;16.922;2023-04-25T13:20:57;4.05;;;1.38;;
77109;SDS011;66062;52.464;16.922;2023-04-25T13:23:25;2.47;;;1.00;;
77109;SDS011;66062;52.464;16.922;2023-04-25T13:28:17;2.17;;;0.73;;
77109;SDS011;66062;52.464;16.922;2023-04-25T13:30:42;2.58;;;0.70;;
77109;SDS011;66062;52.464;16.922;2023-04-25T13:33:08;2.20;;;0.90;;
77109;SDS011;66062;52.464;16.922;2023-04-25T13:35:34;3.25;;;1.08;;
77109;SDS011;66062;52.464;16.922;2023-04-25T13:38:00;3.97;;;0.98;;
77109;SDS011;66062;52.464;16.922;2023-04-25T13:40:26;2.30;;;1.25;;
77109;SDS011;66062;52.464;16.922;2023-04-25T13:42:52;4.20;;;1.13;;
77109;SDS011;66062;52.464;16.922;2023-04-25T13:45:19;6.93;;;1.30;;
77109;SDS011;66062;52.464;16.922;2023-04-25T13:47:45;4.35;;;1.83;;
77109;SDS011;66062;52.464;16.922;2023-04-25T13:50:11;3.22;;;1.63;;
77109;SDS011;66062;52.464;16.922;2023-04-25T13:52:36;4.35;;;1.40;;
77109;SDS011;66062;52.464;16.922;2023-04-25T13:55:02;4.13;;;1.50;;
77109;SDS011;66062;52.464;16.922;2023-04-25T13:57:30;4.70;;;1.80;;
77109;SDS011;66062;52.464;16.922;2023-04-25T13:59:56;6.38;;;2.10;;
77109;SDS011;66062;52.464;16.922;2023-04-25T14:02:21;6.60;;;3.90;;
77109;SDS011;66062;52.464;16.922;2023-04-25T14:04:48;5.82;;;2.17;;
77109;SDS011;66062;52.464;16.922;2023-04-25T14:07:13;8.43;;;1.65;;
77109;SDS011;66062;52.464;16.922;2023-04-25T14:09:42;5.78;;;1.38;;
77109;SDS011;66062;52.464;16.922;2023-04-25T14:12:08;4.80;;;1.73;;
77109;SDS011;66062;52.464;16.922;2023-04-25T14:14:34;4.03;;;1.70;;
77109;SDS011;66062;52.464;16.922;2023-04-25T14:17:00;2.50;;;1.20;;
77109;SDS011;66062;52.464;16.922;2023-04-25T14:19:25;3.85;;;1.90;;
77109;SDS011;66062;52.464;16.922;2023-04-25T14:21:51;4.72;;;1.50;;
77109;SDS011;66062;52.464;16.922;2023-04-25T14:24:16;3.55;;;1.60;;
77109;SDS011;66062;52.464;16.922;2023-04-25T14:26:42;5.93;;;1.40;;
77109;SDS011;66062;52.464;16.922;2023-04-25T14:29:08;5.10;;;1.40;;
77109;SDS011;66062;52.464;16.922;2023-04-25T14:31:36;3.13;;;1.13;;
77109;SDS011;66062;52.464;16.922;2023-04-25T14:34:03;4.25;;;1.25;;
77109;SDS011;66062;52.464;16.922;2023-04-25T14:36:30;6.75;;;1.58;;
77109;SDS011;66062;52.464;16.922;2023-04-25T14:38:57;4.65;;;1.20;;
77109;SDS011;66062;52.464;16.922;2023-04-25T14:41:24;3.05;;;1.65;;
77109;SDS011;66062;52.464;16.922;2023-04-25T14:43:50;2.33;;;1.15;;
77109;SDS011;66062;52.464;16.922;2023-04-25T14:46:17;5.40;;;1.73;;
77109;SDS011;66062;52.464;16.922;2023-04-25T14:48:44;9.07;;;1.95;;